Calvary, Georgia
Current Conditions -  °F | °C
As of 6:55 AM on Thursday 27 Nov 2014 (Local Time) from K2J9 Reporting Station
Clear Clear  
Wind Chill: 39°   Ceiling: Unl
Heat Index: 39°   Visibility: 10mi
Dew Point: 37°   Wind: 3mph
Humidity: 93%   Direction: 310°NW
Pressure: 30.29"   Gusts: NA
Location:  30.73°N, 84.35°W
Report Text: K2J9 271155Z AUTO 31003KT 10SM CLR 04/03 A3029 RMK AO1 P0083
Loading
Personal Weather Stations






























Interactive Weather Map New forecast layout! Learn more

10-Day Weather Forecast

Advertisements
Track Severe Weather on mobile